Time;durP1;ratioP1;P1;durP2;ratioP2;P2;SDS_P1;SDS_P2;PMS_P1;PMS_P2;Temp;Humidity;BMP_temperature;BMP_pressure;BME280_temperature;BME280_humidity;BME280_pressure;Samples;Min_cycle;Max_cycle;Signal;HPM_P1;HPM_P2
2022/12/15 03:21:14;;;;;;;;;;;;;;;8.05;100.00;98559.47;6277440;22;19923;-87
2022/12/15 03:23:39;;;;;;;;;;;;;;;8.06;100.00;98560.31;6278506;22;19919;-89
2022/12/15 03:26:05;;;;;;;;;;;;;;;8.07;100.00;98560.25;6278608;22;19943;-89
2022/12/15 03:28:31;;;;;;;;;;;;;;;8.08;100.00;98561.13;6276673;22;19919;-89
2022/12/15 03:30:56;;;;;;;;;;;;;;;8.08;100.00;98566.41;6278515;22;19911;-84
2022/12/15 03:33:22;;;;;;;;;;;;;;;8.09;100.00;98568.94;6251544;22;19961;-86
2022/12/15 03:35:47;;;;;;;;;;;;;;;8.09;100.00;98560.16;6278451;22;19989;-85
2022/12/15 03:38:12;;;;;;;;;;;;;;;8.08;100.00;98554.03;6251395;22;19911;-85
2022/12/15 03:40:37;;;;;;;;;;;;;;;8.08;100.00;98547.94;6278944;22;20297;-86
2022/12/15 03:43:03;;;;;;;;;;;;;;;8.08;100.00;98553.19;6276722;22;19915;-86
2022/12/15 03:45:28;;;;;;;;;;;;;;;8.10;100.00;98552.16;6251240;22;19954;-86
2022/12/15 03:47:54;;;;;;;;;;;;;;;8.11;100.00;98559.16;6278324;22;19911;-86
2022/12/15 03:50:21;;;;;;;;;;;;;;;8.10;100.00;98546.91;6278338;22;19911;-87
2022/12/15 03:52:51;;;;;;;;;;;;;;;8.10;100.00;98557.44;6278265;22;19911;-86
2022/12/15 03:55:17;;;;;;;;;;;;;;;8.10;100.00;98562.72;6278288;22;19915;-86
2022/12/15 03:57:42;;;;;;;;;;;;;;;8.11;100.00;98563.59;6278171;22;20412;-86
2022/12/15 04:00:07;;;;;;;;;;;;;;;8.13;100.00;98565.19;6276635;22;19961;-86
2022/12/15 04:02:33;;;;;;;;;;;;;;;8.14;100.00;98564.28;6277561;22;19911;-86
2022/12/15 04:04:58;;;;;;;;;;;;;;;8.12;100.00;98566.16;6278122;22;19949;-86
2022/12/15 04:07:23;;;;;;;;;;;;;;;8.13;100.00;98557.28;6278196;22;19972;-86
2022/12/15 04:09:48;;;;;;;;;;;;;;;8.14;100.00;98564.28;6278155;22;20285;-86
2022/12/15 04:12:14;;;;;;;;;;;;;;;8.14;100.00;98566.91;6278117;22;19918;-86
2022/12/15 04:14:41;;;;;;;;;;;;;;;8.14;100.00;98559.00;6276238;22;19912;-86
2022/12/15 04:17:09;;;;;;;;;;;;;;;8.15;100.00;98558.09;6278102;22;19985;-85
2022/12/15 04:22:18;;;;;;;;;;;;;;;8.16;100.00;98566.84;6247411;23;19969;-86
2022/12/15 08:45:33;;;;;;;;;;;;;;;8.30;99.32;98730.59;6272702;22;19988;-87
2022/12/15 08:48:06;;;;;;;;;;;;;;;8.31;99.16;98734.97;6277591;22;19916;-88
2022/12/15 08:50:31;;;;;;;;;;;;;;;8.31;99.21;98723.53;6277944;22;19912;-88
2022/12/15 08:52:57;;;;;;;;;;;;;;;8.32;99.23;98725.25;6278086;22;19973;-86
2022/12/15 08:55:25;;;;;;;;;;;;;;;8.30;99.27;98719.19;6250866;22;20243;-89
2022/12/15 08:57:53;;;;;;;;;;;;;;;8.31;99.29;98732.31;6276801;22;19919;-82
2022/12/15 09:00:18;;;;;;;;;;;;;;;8.28;99.04;98736.88;6278220;22;19911;-88
2022/12/15 09:02:44;;;;;;;;;;;;;;;8.22;98.47;98724.84;6251176;22;19990;-85
2022/12/15 09:05:09;;;;;;;;;;;;;;;6.04;87.79;98740.88;6277536;22;19911;-84
2022/12/15 09:07:37;;;;;;;;;;;;;;;4.99;89.06;98742.25;6277548;22;19937;-86
2022/12/15 09:10:09;;;;;;;;;;;;;;;4.42;92.56;98737.28;6213551;23;19911;-84
2022/12/15 09:12:34;;;;;;;;;;;;;;;4.63;92.83;98734.81;6213939;23;19961;-84
2022/12/15 09:15:00;;;;;;;;;;;;;;;4.95;92.90;98728.41;6212355;23;19998;-83
2022/12/15 09:17:48;;;;;;;;;;;;;;;5.78;92.16;98740.13;6188996;23;19960;-88
2022/12/15 09:20:15;;;;;;;;;;;;;;;6.28;92.59;98745.13;6215209;23;19916;-89
2022/12/15 09:22:43;;;;;;;;;;;;;;;6.43;93.82;98748.03;6215047;23;20343;-89
2022/12/15 09:25:08;;;;;;;;;;;;;;;6.53;95.20;98749.34;6189352;23;19919;-89
2022/12/15 09:27:56;;;;;;;;;;;;;;;6.60;96.44;98747.31;6214032;23;19912;-92
2022/12/15 09:30:45;;;;;;;;;;;;;;;6.61;97.38;98738.50;6197946;23;19943;-89
2022/12/15 09:33:12;;;;;;;;;;;;;;;6.63;98.27;98741.91;6214862;23;20008;-91
2022/12/15 09:35:37;;;;;;;;;;;;;;;6.66;98.72;98739.16;6273660;22;19911;-89
2022/12/15 09:38:02;;;;;;;;;;;;;;;6.66;99.29;98740.00;6278266;22;19918;-91
2022/12/15 09:40:32;;;;;;;;;;;;;;;6.68;99.88;98740.78;6251033;22;19911;-90
2022/12/15 09:43:10;;;;;;;;;;;;;;;6.72;100.00;98744.16;6277383;22;19915;-92
2022/12/15 09:45:43;;;;;;;;;;;;;;;6.75;100.00;98758.94;6257279;22;19923;-87
2022/12/15 09:48:11;;;;;;;;;;;;;;;6.72;100.00;98754.69;6247703;23;19976;-89
2022/12/15 09:50:51;;;;;;;;;;;;;;;;;;;;;
2022/12/15 09:53:26;;;;;;;;;;;;;;;6.80;100.00;98767.53;6247632;23;20330;-89
2022/12/15 09:56:06;;;;;;;;;;;;;;;6.79;100.00;98750.84;6247607;23;19911;-91
2022/12/15 09:58:53;;;;;;;;;;;;;;;6.77;100.00;98744.81;6246030;23;19912;-90
2022/12/15 10:01:42;;;;;;;;;;;;;;;6.81;100.00;98737.63;6219991;23;19912;-91
2022/12/15 10:04:22;;;;;;;;;;;;;;;6.81;100.00;98743.75;6247311;23;19915;-93
2022/12/15 10:06:49;;;;;;;;;;;;;;;6.83;100.00;98746.28;6247335;23;19918;-91
2022/12/15 10:09:32;;;;;;;;;;;;;;;6.80;100.00;98752.56;6222094;23;19911;-92
2022/12/15 10:12:17;;;;;;;;;;;;;;;6.83;100.00;98747.16;6247241;23;19943;-92
2022/12/15 10:14:54;;;;;;;;;;;;;;;6.81;100.00;98746.38;6218863;23;19911;-93
2022/12/15 10:17:26;;;;;;;;;;;;;;;6.80;100.00;98726.22;6247206;23;19918;-92
2022/12/15 10:20:01;;;;;;;;;;;;;;;6.81;100.00;98729.72;6220151;23;19912;-90
2022/12/15 10:22:31;;;;;;;;;;;;;;;6.78;100.00;98721.94;6220693;23;20290;-89
2022/12/15 10:25:10;;;;;;;;;;;;;;;;;;;;;
2022/12/15 10:27:37;;;;;;;;;;;;;;;6.99;100.00;98720.13;6235071;23;20011;-89
2022/12/15 10:30:04;;;;;;;;;;;;;;;7.34;100.00;98717.66;6217993;23;19912;-88
2022/12/15 10:32:49;;;;;;;;;;;;;;;7.16;100.00;98714.09;6246112;23;19912;-92
2022/12/15 10:35:16;;;;;;;;;;;;;;;6.95;100.00;98703.63;6246328;23;19912;-86
2022/12/15 10:37:41;;;;;;;;;;;;;;;6.89;100.00;98696.88;6244779;23;19911;-89
2022/12/15 10:40:07;;;;;;;;;;;;;;;6.87;100.00;98703.13;6246357;23;19916;-91
2022/12/15 10:42:43;;;;;;;;;;;;;;;6.84;100.00;98703.25;6246053;23;19911;-91
2022/12/15 10:45:27;;;;;;;;;;;;;;;6.85;100.00;98707.59;6244621;22;19998;-92
2022/12/15 10:47:57;;;;;;;;;;;;;;;6.85;100.00;98699.69;6246960;23;19919;-83
2022/12/15 10:50:23;;;;;;;;;;;;;;;6.84;100.00;98700.63;6246237;23;19919;-83
2022/12/15 10:52:49;;;;;;;;;;;;;;;6.83;100.00;98693.63;6246481;23;19912;-88
2022/12/15 10:55:26;;;;;;;;;;;;;;;6.82;100.00;98684.03;6219642;23;20322;-81
2022/12/15 10:57:59;;;;;;;;;;;;;;;6.81;100.00;98682.31;6246074;23;19990;-82
2022/12/15 11:00:26;;;;;;;;;;;;;;;6.80;100.00;98673.56;6244727;23;20341;-81
2022/12/15 11:02:52;;;;;;;;;;;;;;;6.79;100.00;98676.28;6245996;23;19994;-85
2022/12/15 11:05:17;;;;;;;;;;;;;;;6.80;100.00;98680.63;6246049;23;19912;-83
2022/12/15 11:07:49;;;;;;;;;;;;;;;6.78;100.00;98666.66;6219072;23;19938;-92
2022/12/15 11:10:14;;;;;;;;;;;;;;;6.78;100.00;98656.13;6246042;23;19918;-84
2022/12/15 11:12:51;;;;;;;;;;;;;;;6.80;100.00;98651.66;6248019;23;20323;-86
2022/12/15 11:15:22;;;;;;;;;;;;;;;6.78;100.00;98648.22;6246654;23;19916;-82
2022/12/15 11:17:51;;;;;;;;;;;;;;;6.77;100.00;98650.03;6220996;23;20320;-90
2022/12/15 11:20:20;;;;;;;;;;;;;;;6.77;100.00;98630.75;6248089;23;19911;-82
2022/12/15 11:22:52;;;;;;;;;;;;;;;6.77;100.00;98626.31;6248835;23;20399;-84
2022/12/15 11:25:37;;;;;;;;;;;;;;;6.80;100.00;98620.06;6247972;23;19915;-87
2022/12/15 11:28:05;;;;;;;;;;;;;;;6.81;100.00;98619.13;6246279;23;19911;-84
2022/12/15 11:30:37;;;;;;;;;;;;;;;6.82;100.00;98608.53;6247338;23;19922;-90
2022/12/15 11:33:02;;;;;;;;;;;;;;;6.82;100.00;98623.47;6247700;23;19986;-86
2022/12/15 11:35:49;;;;;;;;;;;;;;;6.81;100.00;98611.22;6247946;23;19912;-89
2022/12/15 11:38:37;;;;;;;;;;;;;;;6.80;100.00;98605.13;6220673;23;19911;-84
2022/12/15 11:41:25;;;;;;;;;;;;;;;6.83;100.00;98598.84;6247843;23;19964;-85
2022/12/15 11:43:50;;;;;;;;;;;;;;;6.84;100.00;98598.78;6245613;23;19911;-82
2022/12/15 11:46:25;;;;;;;;;;;;;;;6.82;100.00;98598.00;6247601;22;19927;-83
2022/12/15 11:48:51;;;;;;;;;;;;;;;6.80;100.00;98589.31;6247689;23;20005;-85
2022/12/15 11:51:22;;;;;;;;;;;;;;;6.81;100.00;98580.50;6220877;23;19916;-83
2022/12/15 11:54:02;;;;;;;;;;;;;;;6.81;100.00;98580.50;6247391;23;20349;-84
2022/12/15 11:56:46;;;;;;;;;;;;;;;6.82;100.00;98586.63;6247800;23;19943;-84
2022/12/15 11:59:30;;;;;;;;;;;;;;;6.82;100.00;98570.81;6245854;23;20379;-82
2022/12/15 12:01:58;;;;;;;;;;;;;;;6.82;100.00;98569.03;6220423;23;19966;-84
2022/12/15 12:04:26;;;;;;;;;;;;;;;6.85;100.00;98570.69;6247712;23;20163;-89
2022/12/15 12:07:18;;;;;;;;;;;;;;;6.84;100.00;98561.06;6247462;23;19908;-83
2022/12/15 12:10:01;;;;;;;;;;;;;;;6.80;100.00;98555.09;6247632;23;19991;-91
2022/12/15 12:12:29;;;;;;;;;;;;;;;6.81;100.00;98548.03;6247350;23;20312;-86
2022/12/15 12:15:12;;;;;;;;;;;;;;;6.82;100.00;98555.03;6245768;23;20288;-83
2022/12/15 12:17:46;;;;;;;;;;;;;;;6.84;100.00;98558.44;6247654;23;19998;-83
2022/12/15 12:20:17;;;;;;;;;;;;;;;6.84;100.00;98563.69;6247463;23;19950;-82
2022/12/15 12:22:54;;;;;;;;;;;;;;;6.83;100.00;98559.34;6220471;23;20223;-83
2022/12/15 12:25:24;;;;;;;;;;;;;;;6.84;100.00;98561.06;6247279;23;19912;-86
2022/12/15 12:27:55;;;;;;;;;;;;;;;6.84;100.00;98545.25;6247298;23;19939;-86
2022/12/15 12:30:22;;;;;;;;;;;;;;;6.82;100.00;98545.34;6246128;23;19934;-85
2022/12/15 12:32:47;;;;;;;;;;;;;;;6.84;100.00;98546.09;6247241;23;19912;-83
2022/12/15 12:35:13;;;;;;;;;;;;;;;6.84;100.00;98554.00;6247369;23;20361;-83
2022/12/15 12:37:59;;;;;;;;;;;;;;;6.87;100.00;98553.03;6247022;23;20235;-82
2022/12/15 12:40:28;;;;;;;;;;;;;;;6.87;100.00;98555.66;6220717;23;19918;-86
2022/12/15 12:42:54;;;;;;;;;;;;;;;6.87;100.00;98553.03;6247106;23;20280;-86
2022/12/15 12:45:22;;;;;;;;;;;;;;;6.88;100.00;98547.69;6245827;22;19983;-88
2022/12/15 12:47:51;;;;;;;;;;;;;;;6.86;100.00;98535.50;6245840;23;19920;-91
2022/12/15 12:50:18;;;;;;;;;;;;;;;6.88;100.00;98531.88;6247122;23;20252;-82
2022/12/15 12:52:51;;;;;;;;;;;;;;;6.89;100.00;98532.72;6247018;23;19912;-83
2022/12/15 12:55:35;;;;;;;;;;;;;;;6.90;100.00;98537.06;6220629;23;19916;-84
2022/12/15 12:58:01;;;;;;;;;;;;;;;6.90;100.00;98521.28;6245423;23;19946;-89
2022/12/15 13:00:27;;;;;;;;;;;;;;;6.91;100.00;98521.22;6246936;23;19915;-82
2022/12/15 13:02:54;;;;;;;;;;;;;;;6.93;100.00;98515.88;6246772;23;19911;-89
2022/12/15 13:05:30;;;;;;;;;;;;;;;6.91;100.00;98501.94;6220392;23;20316;-83
2022/12/15 13:08:16;;;;;;;;;;;;;;;6.90;100.00;98495.78;6246921;23;19912;-91
2022/12/15 13:10:42;;;;;;;;;;;;;;;6.92;100.00;98487.81;6245913;23;19951;-80
2022/12/15 13:13:16;;;;;;;;;;;;;;;6.91;100.00;98476.44;6245124;23;19908;-84
2022/12/15 13:15:43;;;;;;;;;;;;;;;6.93;100.00;98478.16;6219978;23;19918;-80
2022/12/15 13:18:22;;;;;;;;;;;;;;;6.95;100.00;98469.22;6220250;23;20208;-83
2022/12/15 13:20:48;;;;;;;;;;;;;;;6.96;100.00;98470.09;6246774;23;20375;-89
2022/12/15 13:23:26;;;;;;;;;;;;;;;6.95;100.00;98463.97;6246763;23;19918;-86
2022/12/15 13:25:51;;;;;;;;;;;;;;;6.94;100.00;98470.19;6246708;23;20373;-87
2022/12/15 13:28:16;;;;;;;;;;;;;;;6.96;100.00;98470.09;6218302;23;19919;-90
2022/12/15 13:31:00;;;;;;;;;;;;;;;6.98;100.00;98457.72;6246675;23;20324;-82
2022/12/15 13:33:26;;;;;;;;;;;;;;;6.98;100.00;98462.97;6246548;23;19908;-82
2022/12/15 13:35:51;;;;;;;;;;;;;;;6.93;100.00;98460.56;6246605;23;19912;-85
2022/12/15 13:38:17;;;;;;;;;;;;;;;6.96;100.00;98457.78;6219866;23;19912;-81
2022/12/15 13:40:50;;;;;;;;;;;;;;;6.95;100.00;98452.59;6246567;23;19918;-93
2022/12/15 13:43:30;;;;;;;;;;;;;;;6.94;100.00;98454.38;6218292;23;19919;-92
2022/12/15 13:46:01;;;;;;;;;;;;;;;6.94;100.00;98454.38;6219629;23;19990;-85
2022/12/15 13:48:26;;;;;;;;;;;;;;;6.94;100.00;98458.78;6246648;23;19911;-82
2022/12/15 13:50:56;;;;;;;;;;;;;;;6.96;100.00;98441.13;6246467;23;19918;-92
2022/12/15 13:53:24;;;;;;;;;;;;;;;6.93;100.00;98443.91;6245354;23;19918;-93
2022/12/15 13:55:53;;;;;;;;;;;;;;;6.95;100.00;98437.63;6219585;23;19954;-80
2022/12/15 13:58:20;;;;;;;;;;;;;;;6.95;100.00;98448.16;6245062;23;19998;-81
2022/12/15 14:00:48;;;;;;;;;;;;;;;6.96;100.00;98451.69;6246394;23;19918;-84
2022/12/15 14:03:13;;;;;;;;;;;;;;;6.97;100.00;98454.19;6246164;23;19912;-83
2022/12/15 14:05:41;;;;;;;;;;;;;;;6.94;100.00;98446.47;6246314;23;19991;-80
2022/12/15 14:08:11;;;;;;;;;;;;;;;6.98;100.00;98461.19;6246375;23;19915;-83
2022/12/15 14:10:40;;;;;;;;;;;;;;;6.96;100.00;98460.41;6246340;23;19916;-83
2022/12/15 14:13:17;;;;;;;;;;;;;;;6.99;100.00;98462.91;6244789;23;19911;-86
2022/12/15 14:15:44;;;;;;;;;;;;;;;6.97;100.00;98469.16;6246256;23;19919;-82
2022/12/15 14:18:20;;;;;;;;;;;;;;;6.98;100.00;98471.72;6246339;23;19919;-83
2022/12/15 14:20:46;;;;;;;;;;;;;;;7.00;100.00;98469.84;6246247;23;19916;-90
2022/12/15 14:23:22;;;;;;;;;;;;;;;6.97;100.00;98470.00;6246209;23;19966;-86
2022/12/15 14:25:51;;;;;;;;;;;;;;;6.96;100.00;98467.47;6246234;23;19915;-82
2022/12/15 14:28:28;;;;;;;;;;;;;;;6.96;100.00;98463.06;6244344;23;19916;-84
2022/12/15 14:30:55;;;;;;;;;;;;;;;6.99;100.00;98457.63;6246230;23;20338;-83
2022/12/15 14:33:21;;;;;;;;;;;;;;;6.97;100.00;98461.25;6219831;23;19911;-85
2022/12/15 14:35:51;;;;;;;;;;;;;;;6.97;100.00;98464.72;6246205;23;20354;-84
2022/12/15 14:38:24;;;;;;;;;;;;;;;6.99;100.00;98462.03;6246207;23;19916;-80
2022/12/15 14:40:50;;;;;;;;;;;;;;;7.00;100.00;98459.31;6219500;23;19923;-84
2022/12/15 14:43:36;;;;;;;;;;;;;;;6.98;100.00;98463.81;6244338;23;19938;-85
2022/12/15 14:46:06;;;;;;;;;;;;;;;7.01;100.00;98462.81;6245660;22;19987;-83
2022/12/15 14:48:33;;;;;;;;;;;;;;;6.99;100.00;98460.25;6246224;23;19916;-81
2022/12/15 14:51:03;;;;;;;;;;;;;;;6.98;100.00;98460.34;6245972;23;19919;-81
2022/12/15 14:53:34;;;;;;;;;;;;;;;6.99;100.00;98462.91;6246246;23;20374;-81
2022/12/15 14:56:13;;;;;;;;;;;;;;;7.00;100.00;98467.22;6219488;23;19919;-80
2022/12/15 14:58:40;;;;;;;;;;;;;;;6.98;100.00;98471.72;6244618;23;20319;-80
2022/12/15 15:01:32;;;;;;;;;;;;;;;7.00;100.00;98467.22;6219151;23;20033;-81
2022/12/15 15:04:17;;;;;;;;;;;;;;;6.98;100.00;98465.59;6213307;23;20337;-81
2022/12/15 15:06:42;;;;;;;;;;;;;;;7.00;100.00;98469.84;6224856;23;19911;-82
2022/12/15 15:09:22;;;;;;;;;;;;;;;7.00;100.00;98474.28;6245983;23;19915;-81
2022/12/15 15:11:50;;;;;;;;;;;;;;;7.01;100.00;98476.84;6245978;23;19916;-80
2022/12/15 15:14:26;;;;;;;;;;;;;;;7.03;100.00;98482.88;6244313;23;19986;-81
2022/12/15 15:16:58;;;;;;;;;;;;;;;7.03;100.00;98487.31;6245892;23;20418;-80
2022/12/15 15:19:23;;;;;;;;;;;;;;;7.01;100.00;98492.63;6245968;23;20320;-80
2022/12/15 15:21:48;;;;;;;;;;;;;;;7.01;100.00;98483.91;6245806;23;19916;-80
2022/12/15 15:24:14;;;;;;;;;;;;;;;7.02;100.00;98498.75;6245921;23;20243;-81
2022/12/15 15:26:39;;;;;;;;;;;;;;;7.01;100.00;98491.78;6219012;23;19915;-81
2022/12/15 15:29:23;;;;;;;;;;;;;;;7.03;100.00;98490.78;6244448;23;20308;-81
2022/12/15 15:31:51;;;;;;;;;;;;;;;7.04;100.00;98492.50;6245889;23;19916;-81
2022/12/15 15:34:16;;;;;;;;;;;;;;;7.06;100.00;98505.59;6245892;23;19943;-81
2022/12/15 15:36:41;;;;;;;;;;;;;;;7.05;100.00;98503.88;6245834;23;20244;-80
2022/12/15 15:39:14;;;;;;;;;;;;;;;7.04;100.00;98503.03;6245595;23;19957;-83
2022/12/15 15:41:40;;;;;;;;;;;;;;;7.02;100.00;98497.00;6245725;23;19957;-80
2022/12/15 15:44:10;;;;;;;;;;;;;;;7.05;100.00;98503.88;6244070;22;19986;-84
2022/12/15 15:46:38;;;;;;;;;;;;;;;7.04;100.00;98500.41;6246038;23;19958;-85
2022/12/15 15:49:08;;;;;;;;;;;;;;;7.06;100.00;98497.69;6219252;23;19916;-80
2022/12/15 15:51:34;;;;;;;;;;;;;;;7.05;100.00;98493.34;6245679;23;20283;-84
2022/12/15 15:54:01;;;;;;;;;;;;;;;7.04;100.00;98484.59;6245715;23;20316;-81
2022/12/15 15:56:27;;;;;;;;;;;;;;;7.07;100.00;98486.22;6245817;23;20197;-81
2022/12/15 15:58:52;;;;;;;;;;;;;;;7.04;100.00;98489.84;6245415;23;19912;-80
2022/12/15 16:01:17;;;;;;;;;;;;;;;7.05;100.00;98470.50;6247494;23;20239;-81
2022/12/15 16:03:43;;;;;;;;;;;;;;;7.04;100.00;98475.84;6247606;23;20320;-80
2022/12/15 16:06:15;;;;;;;;;;;;;;;7.05;100.00;98472.25;6247160;23;20397;-81
2022/12/15 16:08:41;;;;;;;;;;;;;;;7.05;100.00;98482.81;6247612;23;19912;-83
2022/12/15 16:11:09;;;;;;;;;;;;;;;7.04;100.00;98475.84;6247379;23;19919;-80
2022/12/15 16:13:35;;;;;;;;;;;;;;;7.04;100.00;98484.59;6246314;23;19919;-81
2022/12/15 16:16:00;;;;;;;;;;;;;;;7.06;100.00;98495.91;6247430;23;20303;-81
2022/12/15 16:18:26;;;;;;;;;;;;;;;7.07;100.00;98492.34;6247452;23;19916;-81
2022/12/15 16:20:51;;;;;;;;;;;;;;;7.06;100.00;98492.41;6247606;23;19919;-82
2022/12/15 16:23:18;;;;;;;;;;;;;;;7.08;100.00;98494.06;6247226;23;19916;-82
2022/12/15 16:25:47;;;;;;;;;;;;;;;7.09;100.00;98508.91;6247437;23;19934;-83
2022/12/15 16:28:14;;;;;;;;;;;;;;;7.08;100.00;98509.88;6244288;23;19990;-81
2022/12/15 16:30:40;;;;;;;;;;;;;;;7.07;100.00;98515.22;6246623;23;19912;-88
2022/12/15 16:33:05;;;;;;;;;;;;;;;7.07;100.00;98517.84;6247900;23;19918;-87
2022/12/15 16:35:33;;;;;;;;;;;;;;;7.09;100.00;98522.09;6246746;23;19912;-84
2022/12/15 16:37:58;;;;;;;;;;;;;;;7.08;100.00;98525.66;6246309;23;19990;-80
2022/12/15 16:40:25;;;;;;;;;;;;;;;7.09;100.00;98519.44;6220501;23;20314;-81
2022/12/15 16:43:00;;;;;;;;;;;;;;;7.07;100.00;98523.94;6247211;23;19958;-84
2022/12/15 16:45:29;;;;;;;;;;;;;;;7.08;100.00;98528.31;6246609;22;19962;-80
2022/12/15 16:47:55;;;;;;;;;;;;;;;7.09;100.00;98537.88;6247600;23;19911;-81
2022/12/15 16:50:40;;;;;;;;;;;;;;;7.10;100.00;98538.75;6247441;23;19964;-81
2022/12/15 16:53:06;;;;;;;;;;;;;;;7.12;100.00;98529.00;6247124;23;19912;-89
2022/12/15 16:55:32;;;;;;;;;;;;;;;7.08;100.00;98525.66;6247049;23;19978;-80
2022/12/15 16:57:59;;;;;;;;;;;;;;;7.10;100.00;98530.88;6246530;23;20299;-81
2022/12/15 17:00:25;;;;;;;;;;;;;;;7.06;100.00;98530.13;6246505;23;19987;-84
2022/12/15 17:02:52;;;;;;;;;;;;;;;6.46;100.00;98529.47;6247393;23;19915;-90
2022/12/15 17:05:18;;;;;;;;;;;;;;;5.99;100.00;98528.91;6245367;23;19920;-81
2022/12/15 17:07:45;;;;;;;;;;;;;;;5.67;100.00;98526.81;6246343;23;19919;-84
2022/12/15 17:10:18;;;;;;;;;;;;;;;5.42;100.00;98527.84;6245759;23;19935;-81
2022/12/15 17:12:43;;;;;;;;;;;;;;;5.33;100.00;98530.84;6246350;23;20243;-83
2022/12/15 17:15:16;;;;;;;;;;;;;;;5.15;100.00;98525.44;6244575;23;19912;-81
2022/12/15 17:17:41;;;;;;;;;;;;;;;5.02;100.00;98521.59;6246087;23;19919;-83
2022/12/15 17:20:07;;;;;;;;;;;;;;;4.91;100.00;98515.03;6246143;23;19923;-81
2022/12/15 17:22:32;;;;;;;;;;;;;;;4.91;100.00;98517.66;6246838;23;20243;-82
2022/12/15 17:24:57;;;;;;;;;;;;;;;4.76;100.00;98523.50;6247225;23;19918;-93
2022/12/15 17:27:26;;;;;;;;;;;;;;;4.71;100.00;98521.06;6247894;23;19978;-81
2022/12/15 17:29:52;;;;;;;;;;;;;;;4.60;100.00;98525.88;6246487;23;20304;-85
2022/12/15 17:32:18;;;;;;;;;;;;;;;4.55;100.00;98526.03;6248657;23;19908;-91
2022/12/15 17:34:43;;;;;;;;;;;;;;;4.43;100.00;98523.88;6248098;23;19918;-90
2022/12/15 17:37:10;;;;;;;;;;;;;;;4.39;100.00;98517.06;6246766;23;20327;-87
2022/12/15 17:39:35;;;;;;;;;;;;;;;4.42;100.00;98508.19;6248557;23;19907;-86
2022/12/15 17:42:01;;;;;;;;;;;;;;;4.34;100.00;98518.97;6248380;23;19918;-83
2022/12/15 17:44:28;;;;;;;;;;;;;;;4.27;100.00;98517.50;6245896;22;19965;-85
2022/12/15 17:46:53;;;;;;;;;;;;;;;4.30;100.00;98518.25;6248003;23;19982;-85
2022/12/15 17:49:19;;;;;;;;;;;;;;;4.27;100.00;98509.66;6246844;23;20324;-87
2022/12/15 17:51:45;;;;;;;;;;;;;;;4.16;100.00;98515.28;6247174;23;19911;-87
2022/12/15 17:54:14;;;;;;;;;;;;;;;4.10;100.00;98516.38;6246402;23;19916;-87
2022/12/15 17:56:46;;;;;;;;;;;;;;;4.08;100.00;98514.72;6246402;23;20311;-89
2022/12/15 17:59:16;;;;;;;;;;;;;;;3.95;100.00;98509.91;6245593;23;19961;-91
2022/12/15 18:01:41;;;;;;;;;;;;;;;3.97;100.00;98504.63;6246237;23;20286;-87
2022/12/15 18:04:07;;;;;;;;;;;;;;;3.95;100.00;98504.66;6246614;23;19919;-84
2022/12/15 18:06:32;;;;;;;;;;;;;;;3.91;100.00;98499.59;6246448;23;19947;-83
2022/12/15 18:08:58;;;;;;;;;;;;;;;3.96;100.00;98501.16;6246030;23;19911;-83
2022/12/15 18:11:23;;;;;;;;;;;;;;;3.90;100.00;98501.38;6246604;23;19923;-90
2022/12/15 18:13:48;;;;;;;;;;;;;;;3.87;100.00;98500.63;6245375;23;19911;-89
2022/12/15 18:16:14;;;;;;;;;;;;;;;3.85;100.00;98502.47;6247679;23;19981;-89
2022/12/15 18:18:39;;;;;;;;;;;;;;;3.88;100.00;98504.94;6246280;23;19919;-83
2022/12/15 18:21:11;;;;;;;;;;;;;;;3.79;100.00;98504.38;6245559;23;19958;-84
2022/12/15 18:23:36;;;;;;;;;;;;;;;3.72;100.00;98505.50;6246339;23;19957;-83
2022/12/15 18:26:01;;;;;;;;;;;;;;;3.75;100.00;98508.03;6246472;23;19915;-83
2022/12/15 18:28:31;;;;;;;;;;;;;;;3.70;100.00;98496.84;6243317;23;19998;-81
2022/12/15 18:31:03;;;;;;;;;;;;;;;3.62;100.00;98496.25;6245465;23;19978;-83
2022/12/15 18:33:29;;;;;;;;;;;;;;;3.75;100.00;98491.41;6245145;23;19916;-86
2022/12/15 18:35:55;;;;;;;;;;;;;;;3.56;100.00;98499.09;6246185;23;20338;-85
2022/12/15 18:38:32;;;;;;;;;;;;;;;3.41;100.00;98496.06;6244468;23;19911;-84
2022/12/15 18:40:59;;;;;;;;;;;;;;;3.48;100.00;98498.50;6244795;23;19912;-83
2022/12/15 18:43:32;;;;;;;;;;;;;;;3.43;100.00;98494.28;6244175;23;19915;-83
2022/12/15 18:45:57;;;;;;;;;;;;;;;3.42;100.00;98505.66;6246138;22;20003;-83
2022/12/15 18:48:26;;;;;;;;;;;;;;;3.43;100.00;98499.53;6245573;23;20347;-85
2022/12/15 18:50:53;;;;;;;;;;;;;;;3.45;100.00;98502.09;6244804;23;19907;-83
2022/12/15 18:53:30;;;;;;;;;;;;;;;3.35;100.00;98506.78;6245835;23;19911;-83
2022/12/15 18:55:56;;;;;;;;;;;;;;;3.31;100.00;98512.19;6245587;23;20339;-82
2022/12/15 18:58:33;;;;;;;;;;;;;;;;;;;;;
2022/12/15 19:01:01;;;;;;;;;;;;;;;3.32;100.00;98512.13;6241197;23;19994;-84
2022/12/15 19:03:27;;;;;;;;;;;;;;;3.37;100.00;98511.97;6245984;23;19919;-85
2022/12/15 19:06:00;;;;;;;;;;;;;;;3.33;100.00;98516.44;6245761;23;19912;-85
2022/12/15 19:08:30;;;;;;;;;;;;;;;3.20;100.00;98515.16;6245783;23;19907;-84
2022/12/15 19:13:52;;;;;;;;;;;;;;;3.26;100.00;98522.81;6244479;23;19942;-83
2022/12/15 19:16:21;;;;;;;;;;;;;;;3.28;100.00;98524.44;6245618;23;19916;-85
2022/12/15 19:24:13;;;;;;;;;;;;;;;3.17;100.00;98516.09;6255876;23;20373;-84
2022/12/15 19:26:47;;;;;;;;;;;;;;;3.15;100.00;98510.06;6218598;23;19935;-84
2022/12/15 19:29:27;;;;;;;;;;;;;;;3.20;100.00;98504.69;6243486;23;20221;-85
2022/12/15 19:31:53;;;;;;;;;;;;;;;3.11;100.00;98516.28;6246153;23;19937;-84
2022/12/15 19:34:18;;;;;;;;;;;;;;;3.31;100.00;98507.78;6220388;23;20288;-83
2022/12/15 19:36:44;;;;;;;;;;;;;;;3.80;100.00;98505.25;6248160;23;19911;-82
2022/12/15 19:39:15;;;;;;;;;;;;;;;4.18;100.00;98505.63;6247167;23;19912;-82
2022/12/15 19:41:45;;;;;;;;;;;;;;;4.41;100.00;98512.59;6247800;23;19919;-83
2022/12/15 19:44:13;;;;;;;;;;;;;;;4.60;100.00;98506.66;6245650;22;19912;-83
2022/12/15 19:46:40;;;;;;;;;;;;;;;4.75;100.00;98510.44;6219885;23;20320;-86
2022/12/15 19:49:06;;;;;;;;;;;;;;;4.87;100.00;98504.72;6247598;23;19975;-83
2022/12/15 19:51:33;;;;;;;;;;;;;;;4.98;100.00;98514.75;6220927;23;19915;-84
2022/12/15 19:53:58;;;;;;;;;;;;;;;5.06;100.00;98505.69;6245480;23;19911;-84
2022/12/15 19:56:25;;;;;;;;;;;;;;;5.18;100.00;98513.97;6247500;23;19918;-85
2022/12/15 19:58:51;;;;;;;;;;;;;;;5.24;100.00;98513.72;6216940;23;19912;-84
2022/12/15 20:01:17;;;;;;;;;;;;;;;5.30;100.00;98516.09;6246041;23;19950;-86
2022/12/15 20:03:48;;;;;;;;;;;;;;;5.42;100.00;98523.44;6246828;23;19918;-84
2022/12/15 20:06:25;;;;;;;;;;;;;;;5.44;100.00;98513.75;6246491;23;20316;-84
2022/12/15 20:08:51;;;;;;;;;;;;;;;5.50;100.00;98517.88;6246081;23;19981;-86
2022/12/15 20:11:21;;;;;;;;;;;;;;;5.60;100.00;98518.31;6246246;23;20471;-84
2022/12/15 20:13:47;;;;;;;;;;;;;;;5.61;100.00;98527.94;6218349;23;20324;-84
2022/12/15 20:16:17;;;;;;;;;;;;;;;5.71;100.00;98528.38;6246848;23;19961;-85
2022/12/15 20:19:16;;;;;;;;;;;;;;;5.67;100.00;98521.56;6246148;23;19916;-84
2022/12/15 20:21:43;;;;;;;;;;;;;;;5.72;100.00;98525.69;6246879;23;19970;-84
2022/12/15 20:24:18;;;;;;;;;;;;;;;5.75;100.00;98517.66;6246550;23;20382;-83
2022/12/15 20:26:44;;;;;;;;;;;;;;;5.81;100.00;98527.09;6247083;23;19919;-84
2022/12/15 20:29:20;;;;;;;;;;;;;;;5.82;100.00;98523.50;6245469;23;19912;-83
2022/12/15 20:31:45;;;;;;;;;;;;;;;5.86;100.00;98527.72;6246306;23;19958;-83
2022/12/15 20:34:13;;;;;;;;;;;;;;;5.88;100.00;98520.63;6220358;23;20319;-86
2022/12/15 20:36:39;;;;;;;;;;;;;;;5.93;100.00;98520.41;6247064;23;20375;-85
2022/12/15 20:39:17;;;;;;;;;;;;;;;5.95;100.00;98524.69;6246477;23;19911;-86
2022/12/15 20:41:44;;;;;;;;;;;;;;;5.98;100.00;98518.47;6219017;23;19947;-85
2022/12/15 20:44:11;;;;;;;;;;;;;;;6.02;100.00;98527.09;6244788;22;19911;-85
2022/12/15 20:46:37;;;;;;;;;;;;;;;6.05;100.00;98524.31;6219932;23;19916;-85
2022/12/15 20:49:03;;;;;;;;;;;;;;;6.06;100.00;98528.66;6247141;23;20324;-84
2022/12/15 20:51:30;;;;;;;;;;;;;;;6.11;100.00;98526.66;6219402;23;19994;-85
2022/12/15 20:53:57;;;;;;;;;;;;;;;6.11;100.00;98521.41;6219624;23;19911;-83
2022/12/15 20:56:22;;;;;;;;;;;;;;;6.11;100.00;98532.81;6246627;23;20342;-82